Terminal Aerodrome Forecast
Issued by NWS Austin/San Antonio, TX

Home | Current Version | Previous Version | Text Only | Print | Product List | Glossary On
Versions: 1 2 3 4 5 6 7 8 9 10 11 12 13 14 15 16 17 18 19 20 21 22 23 24 25 26
000
FTUS44 KEWX 042335
TAFSAT
TAF
KSAT 042335Z 0500/0606 15012KT P6SM FEW050
     FM050700 15010KT P6SM BKN015
     FM051000 17005KT P6SM OVC008
     FM051400 17007KT P6SM BKN015
     FM051600 17012KT P6SM BKN025
     FM051800 16014KT P6SM SCT040=

USA.gov is the U.S. government's official web portal to all federal, state and local government web resources and services.